Terminal Aerodrome Forecast
Issued by NWS

Home | Current Version | Previous Version | Text Only | Print | Product List | Glossary On
Versions: 1 2 3 4 5 6 7 8 9 10 11 12 13 14 15 16 17 18
000
FTUS43 KMPX 291720
TAFAXN
TAF
KAXN 291720Z 2918/3018 21010KT P6SM SCT035 BKN250
     FM292100 26007KT P6SM VCSH SCT060 BKN090
      TEMPO 2921/2924 5SM -TSRA BKN060CB OVC090
     FM300000 35005KT P6SM FEW060 SCT090
     FM301500 04007KT P6SM SKC=

USA.gov is the U.S. government's official web portal to all federal, state and local government web resources and services.